KPPA/PPA METAR and TAF weather

Enter ICAO airport designator
Station Type Date Time Source
KPPA METAR 2019/04/25 07:55 UTC NOAA

KPPA 250755Z AUTO 21008KT 10SM CLR 11/09 A2986 RMK AO2 T01120093


Station Type Date Time Source
KPPA Decoded METAR 2019/04/25 07:55 UTC NOAA

Pampa, Perry Lefors Field Airport, TX, United States (KPPA) 35-36-46N 100-59-46W
Apr 25, 2019 - 03:55 AM EDT / 2019.04.25 0755 UTC
Wind: from the SSW (210 degrees) at 9 MPH (8 KT):0
Visibility: 10 mile(s):0
Sky conditions: clear
Temperature: 52.2 F (11.2 C)
Dew Point: 48.7 F (9.3 C)
Relative Humidity: 88%
Pressure (altimeter): 29.86 in. Hg (1011 hPa)
ob: KPPA 250755Z AUTO 21008KT 10SM CLR 11/09 A2986 RMK AO2 T01120093
cycle: 8

Station Type Date Time Source
KPPA TAF UTC NOAA

Error!

Example: see airport list